Time;durP1;ratioP1;P1;durP2;ratioP2;P2;SDS_P1;SDS_P2;PMS_P1;PMS_P2;Temp;Humidity;BMP_temperature;BMP_pressure;BME280_temperature;BME280_humidity;BME280_pressure;Samples;Min_cycle;Max_cycle;Signal;HPM_P1;HPM_P2
2022/03/07 00:00:44;;;;;;;45.85;31.25;;;;;;;-1.25;100.00;99482.53;2082690;28;20543;-76
2022/03/07 00:01:48;;;;;;;50.83;33.28;;;;;;;-1.25;100.00;99487.78;2082396;28;20192;-76
2022/03/07 00:02:50;;;;;;;48.78;34.13;;;;;;;-1.23;100.00;99479.72;2081871;28;20235;-76
2022/03/07 00:03:57;;;;;;;53.25;34.88;;;;;;;-1.23;100.00;99490.97;2081960;28;20639;-76
2022/03/07 00:05:01;;;;;;;46.72;32.78;;;;;;;-1.18;100.00;99485.94;2082311;28;20195;-76
2022/03/07 00:06:04;;;;;;;51.50;33.97;;;;;;;-1.14;100.00;99500.19;2081426;28;20207;-76
2022/03/07 00:07:06;;;;;;;47.50;32.15;;;;;;;-1.24;100.00;99493.81;2073707;28;20598;-76
2022/03/07 00:08:15;;;;;;;45.40;31.70;;;;;;;-1.20;100.00;99498.44;2081826;28;20187;-76
2022/03/07 00:09:16;;;;;;;46.53;33.22;;;;;;;-1.26;100.00;99490.63;2082616;28;20543;-76
2022/03/07 00:10:21;;;;;;;49.00;33.63;;;;;;;-1.27;100.00;99495.03;2082337;28;20298;-76
2022/03/07 00:11:28;;;;;;;49.63;33.35;;;;;;;-1.26;100.00;99495.84;2081663;28;20572;-76
2022/03/07 00:12:34;;;;;;;44.05;32.90;;;;;;;-1.29;100.00;99494.47;2081759;28;20188;-76
2022/03/07 00:13:39;;;;;;;44.55;32.20;;;;;;;-1.22;100.00;99489.97;2082337;28;20266;-76
2022/03/07 00:14:41;;;;;;;47.55;32.22;;;;;;;-1.22;100.00;99495.19;2082344;28;20195;-75
2022/03/07 00:15:50;;;;;;;41.60;31.75;;;;;;;-1.18;100.00;99487.75;2089890;28;20191;-76
2022/03/07 00:16:54;;;;;;;47.38;33.10;;;;;;;-1.21;100.00;99493.41;2088724;28;20247;-76
2022/03/07 00:18:00;;;;;;;45.72;32.65;;;;;;;-1.30;100.00;99492.84;2082470;28;20278;-76
2022/03/07 00:19:02;;;;;;;49.38;33.28;;;;;;;-1.30;100.00;99497.28;2089717;28;20203;-76
2022/03/07 00:20:07;;;;;;;45.42;31.77;;;;;;;-1.21;100.00;99496.03;2081452;28;20205;-76
2022/03/07 00:21:11;;;;;;;48.35;32.65;;;;;;;-1.15;100.00;99493.38;2081087;28;20230;-75
2022/03/07 00:22:12;;;;;;;53.15;34.53;;;;;;;-1.24;100.00;99492.00;2081866;28;20226;-76
2022/03/07 00:23:21;;;;;;;46.57;32.30;;;;;;;-1.31;100.00;99491.22;2073388;28;20663;-75
2022/03/07 00:24:26;;;;;;;45.55;32.17;;;;;;;-1.19;100.00;99486.16;2081968;28;20176;-76
2022/03/07 00:25:30;;;;;;;49.83;32.70;;;;;;;-1.08;100.00;99493.34;2081565;28;20196;-76
2022/03/07 00:26:32;;;;;;;43.83;32.08;;;;;;;-1.10;100.00;99494.56;2081580;28;20725;-76
2022/03/07 00:27:40;;;;;;;43.08;30.88;;;;;;;-1.01;100.00;99499.34;2081836;28;20223;-76
2022/03/07 00:28:44;;;;;;;44.72;31.67;;;;;;;-0.98;100.00;99498.91;2081871;28;20182;-76
2022/03/07 00:29:52;;;;;;;45.65;32.67;;;;;;;-1.09;100.00;99496.16;2082192;28;20195;-76
2022/03/07 00:30:59;;;;;;;44.70;31.30;;;;;;;-1.21;100.00;99499.47;2081780;28;20223;-76
2022/03/07 00:32:04;;;;;;;44.95;32.17;;;;;;;-1.31;100.00;99487.81;2081384;28;20685;-76
2022/03/07 00:33:06;;;;;;;43.90;30.90;;;;;;;-1.33;100.00;99495.88;2081505;28;20550;-76
2022/03/07 00:34:08;;;;;;;44.22;31.75;;;;;;;-1.30;100.00;99490.25;2081403;28;20223;-76
2022/03/07 00:35:12;;;;;;;47.22;32.58;;;;;;;-1.25;100.00;99498.25;2073842;28;20726;-76
2022/03/07 00:36:21;;;;;;;45.72;32.42;;;;;;;-1.29;100.00;99497.06;2073601;28;20672;-76
2022/03/07 00:37:24;;;;;;;43.33;29.30;;;;;;;-1.11;100.00;99488.53;2074483;28;20587;-76
2022/03/07 00:38:32;;;;;;;36.33;27.10;;;;;;;-0.96;100.00;99503.94;2081748;28;20194;-76
2022/03/07 00:39:39;;;;;;;42.72;31.30;;;;;;;-1.05;100.00;99497.34;2082125;28;20245;-75
2022/03/07 00:40:41;;;;;;;43.70;31.38;;;;;;;-1.14;100.00;99492.34;2081692;28;20307;-76
2022/03/07 00:41:43;;;;;;;48.65;31.88;;;;;;;-1.29;100.00;99494.47;2073616;28;20196;-76
2022/03/07 00:42:51;;;;;;;41.90;30.80;;;;;;;-1.33;100.00;99492.44;2081308;28;20218;-76
2022/03/07 00:43:54;;;;;;;41.42;30.38;;;;;;;-1.34;100.00;99496.88;2081772;28;20199;-76
2022/03/07 00:45:00;;;;;;;42.80;30.52;;;;;;;-1.36;100.00;99492.88;2081354;28;20250;-76
2022/03/07 00:46:04;;;;;;;43.08;31.08;;;;;;;-1.30;100.00;99494.66;2073764;28;20207;-76
2022/03/07 00:47:14;;;;;;;44.78;31.38;;;;;;;-1.25;100.00;99493.00;2081714;28;20196;-76
2022/03/07 00:48:18;;;;;;;41.03;30.60;;;;;;;-1.22;100.00;99497.81;2082113;28;20638;-76
2022/03/07 00:49:26;;;;;;;39.60;30.20;;;;;;;-1.14;100.00;99502.81;2089730;28;20197;-75
2022/03/07 00:50:28;;;;;;;44.60;31.33;;;;;;;-1.25;100.00;99489.59;2081481;28;20196;-76
2022/03/07 00:51:32;;;;;;;40.78;31.30;;;;;;;-1.34;100.00;99488.22;2081371;28;20243;-76
2022/03/07 00:52:39;;;;;;;40.67;30.63;;;;;;;-1.40;100.00;99489.03;2073527;28;20300;-76
2022/03/07 00:53:49;;;;;;;43.00;30.58;;;;;;;-1.37;100.00;99489.44;2081661;28;20179;-76
2022/03/07 00:54:58;;;;;;;47.20;32.20;;;;;;;-1.37;100.00;99492.06;2082040;28;20286;-76
2022/03/07 00:56:01;;;;;;;49.70;31.70;;;;;;;-1.44;100.00;99494.72;2089795;28;20286;-76
2022/03/07 00:57:02;;;;;;;38.67;29.35;;;;;;;-1.45;100.00;99489.69;2089482;28;20194;-76
2022/03/07 00:58:04;;;;;;;43.70;30.90;;;;;;;-1.46;100.00;99495.94;2089650;28;20203;-76
2022/03/07 00:59:05;;;;;;;43.58;30.85;;;;;;;-1.50;100.00;99489.50;2081331;28;20252;-76
2022/03/07 01:00:17;;;;;;;42.50;30.03;;;;;;;-1.41;100.00;99485.63;2081335;28;20226;-76
2022/03/07 01:01:25;;;;;;;44.53;29.08;;;;;;;-1.38;100.00;99484.44;2081774;28;20192;-76
2022/03/07 01:02:36;;;;;;;38.15;29.73;;;;;;;-1.50;100.00;99479.03;2081280;28;20286;-76
2022/03/07 01:03:40;;;;;;;43.25;31.02;;;;;;;-1.48;100.00;99484.84;2074311;28;20697;-76
2022/03/07 01:04:41;;;;;;;43.30;30.70;;;;;;;-1.52;100.00;99475.81;2073498;28;20207;-76
2022/03/07 01:05:44;;;;;;;69.38;30.73;;;;;;;-1.55;100.00;99471.00;2081471;28;20192;-76
2022/03/07 01:06:45;;;;;;;40.28;29.63;;;;;;;-1.54;100.00;99470.00;2081454;28;20680;-76
2022/03/07 01:07:56;;;;;;;42.35;29.98;;;;;;;-1.52;100.00;99484.47;2081327;28;20196;-76
2022/03/07 01:09:01;;;;;;;42.33;30.05;;;;;;;-1.48;100.00;99477.81;2088450;28;20175;-76
2022/03/07 01:10:09;;;;;;;42.80;30.13;;;;;;;-1.43;100.00;99480.59;2081329;28;20286;-76
2022/03/07 01:11:18;;;;;;;46.63;29.50;;;;;;;-1.52;100.00;99475.81;2081742;28;20591;-76
2022/03/07 01:12:20;;;;;;;41.83;30.50;;;;;;;-1.52;100.00;99473.19;2082146;28;20168;-75
2022/03/07 01:13:22;;;;;;;41.35;30.40;;;;;;;-1.56;100.00;99474.63;2081589;28;20204;-75
2022/03/07 01:14:24;;;;;;;42.28;30.48;;;;;;;-1.58;100.00;99481.88;2073384;28;20242;-77
2022/03/07 01:15:32;;;;;;;43.97;29.83;;;;;;;-1.67;100.00;99472.66;2081482;28;20213;-75
2022/03/07 01:16:46;;;;;;;40.30;29.45;;;;;;;-1.66;100.00;99474.25;2081993;28;20176;-76
2022/03/07 01:17:59;;;;;;;45.92;30.33;;;;;;;-1.58;100.00;99484.47;2081206;28;20239;-76
2022/03/07 01:19:02;;;;;;;44.58;30.63;;;;;;;-1.53;100.00;99476.84;2081783;28;20613;-76
2022/03/07 01:20:06;;;;;;;35.20;27.45;;;;;;;-1.52;100.00;99481.06;2081645;28;20203;-76
2022/03/07 01:21:11;;;;;;;42.60;30.02;;;;;;;-1.59;100.00;99481.06;2072865;28;20207;-75
2022/03/07 01:22:17;;;;;;;42.05;30.92;;;;;;;-1.58;100.00;99471.41;2073957;28;20627;-75
2022/03/07 01:23:28;;;;;;;39.63;30.02;;;;;;;-1.65;100.00;99470.63;2081375;28;20568;-75
2022/03/07 01:24:40;;;;;;;39.63;29.15;;;;;;;-1.76;100.00;99469.44;2081540;28;20227;-76
2022/03/07 01:25:46;;;;;;;43.03;31.10;;;;;;;-1.76;100.00;99472.06;2081711;28;20567;-76
2022/03/07 01:26:51;;;;;;;46.88;29.85;;;;;;;-1.71;100.00;99467.84;2081586;28;20250;-76
2022/03/07 01:27:56;;;;;;;42.88;30.13;;;;;;;-1.67;100.00;99468.22;2081391;28;20674;-76
2022/03/07 01:28:58;;;;;;;42.05;29.83;;;;;;;-1.72;100.00;99462.81;2081976;28;20194;-76
2022/03/07 01:30:05;;;;;;;40.60;29.77;;;;;;;-1.68;100.00;99461.38;2081354;28;20250;-76
2022/03/07 01:31:17;;;;;;;39.47;29.85;;;;;;;-1.62;100.00;99465.00;2081488;28;20207;-76
2022/03/07 01:32:26;;;;;;;41.25;28.30;;;;;;;-1.64;100.00;99467.03;2081257;28;20203;-76
2022/03/07 01:33:31;;;;;;;45.28;30.55;;;;;;;-1.73;100.00;99461.22;2074206;28;20247;-76
2022/03/07 01:34:37;;;;;;;40.90;29.50;;;;;;;-1.80;100.00;99455.19;2081639;28;20182;-75
2022/03/07 01:35:38;;;;;;;48.58;31.95;;;;;;;-1.79;100.00;99460.22;2081513;28;20238;-76
2022/03/07 01:36:40;;;;;;;41.97;29.92;;;;;;;-1.80;100.00;99457.81;2072724;28;20224;-75
2022/03/07 01:37:46;;;;;;;38.03;29.70;;;;;;;-1.82;100.00;99471.09;2081136;28;20762;-76
2022/03/07 01:38:56;;;;;;;35.05;25.90;;;;;;;-1.75;100.00;99456.16;2081496;28;20172;-76
2022/03/07 01:40:03;;;;;;;40.47;30.17;;;;;;;-1.82;100.00;99450.16;2081860;28;20706;-76
2022/03/07 01:41:13;;;;;;;32.47;24.30;;;;;;;-1.61;100.00;99462.16;2081282;28;20220;-76
2022/03/07 01:42:18;;;;;;;40.72;29.90;;;;;;;-1.68;100.00;99461.38;2081427;28;20615;-76
2022/03/07 01:43:23;;;;;;;38.63;29.42;;;;;;;-1.82;100.00;99465.06;2081792;28;20298;-76
2022/03/07 01:44:34;;;;;;;39.33;30.02;;;;;;;-1.81;100.00;99457.00;2082836;28;20730;-75
2022/03/07 01:45:40;;;;;;;38.88;28.75;;;;;;;-1.74;100.00;99464.81;2083320;28;20206;-76
2022/03/07 01:46:47;;;;;;;39.25;29.60;;;;;;;-1.81;100.00;99458.81;2082638;28;20192;-76
2022/03/07 01:47:51;;;;;;;44.53;30.52;;;;;;;-1.80;100.00;99461.22;2082669;28;20584;-76
2022/03/07 01:48:58;;;;;;;35.33;27.35;;;;;;;-1.77;100.00;99473.88;2075036;28;20329;-76
2022/03/07 01:50:00;;;;;;;33.45;26.77;;;;;;;-1.79;100.00;99467.25;2075065;28;20221;-76
2022/03/07 01:51:06;;;;;;;42.90;30.98;;;;;;;-1.75;100.00;99468.44;2073997;28;20197;-75
2022/03/07 01:52:18;;;;;;;41.63;29.88;;;;;;;-1.83;100.00;99453.78;2075161;28;20279;-75
2022/03/07 01:53:32;;;;;;;32.95;26.20;;;;;;;-1.83;100.00;99464.22;2082723;28;20199;-76
2022/03/07 01:54:40;;;;;;;45.42;28.48;;;;;;;-1.85;100.00;99463.63;2076482;28;20210;-75
2022/03/07 01:55:49;;;;;;;41.15;27.92;;;;;;;-1.92;100.00;99464.66;2074830;28;20231;-75
2022/03/07 01:56:53;;;;;;;41.58;26.08;;;;;;;-1.96;100.00;99464.28;2082996;28;20176;-75
2022/03/07 01:57:59;;;;;;;35.45;24.48;;;;;;;-1.95;100.00;99452.00;2082691;28;20265;-75
2022/03/07 01:59:06;;;;;;;47.40;31.80;;;;;;;-2.02;100.00;99454.63;2074839;28;20229;-75
2022/03/07 02:00:19;;;;;;;39.53;27.17;;;;;;;-2.03;100.00;99459.06;2082606;28;20203;-75
2022/03/07 02:01:31;;;;;;;36.90;28.27;;;;;;;-2.01;100.00;99459.66;2076582;28;20299;-76
2022/03/07 02:02:43;;;;;;;45.63;30.35;;;;;;;-2.10;100.00;99454.84;2082680;28;20645;-76
2022/03/07 02:03:52;;;;;;;37.55;27.95;;;;;;;-1.99;100.00;99462.09;2082555;28;20198;-75
2022/03/07 02:04:55;;;;;;;37.08;28.17;;;;;;;-2.05;100.00;99457.66;2082605;28;20322;-76
2022/03/07 02:06:02;;;;;;;38.45;29.10;;;;;;;-2.04;100.00;99457.44;2073848;28;20203;-75
2022/03/07 02:07:11;;;;;;;39.00;29.58;;;;;;;-2.00;100.00;99458.66;2075645;28;20551;-76
2022/03/07 02:08:24;;;;;;;42.78;30.75;;;;;;;-2.03;100.00;99461.66;2075630;28;20626;-76
2022/03/07 02:09:45;;;;;;;33.88;25.77;;;;;;;-2.01;100.00;99464.06;2077831;28;20195;-76
2022/03/07 02:10:50;;;;;;;42.72;29.30;;;;;;;-2.03;100.00;99464.28;2075840;28;20295;-76
2022/03/07 02:11:53;;;;;;;40.30;28.88;;;;;;;-2.06;100.00;99453.44;2074379;28;20211;-76
2022/03/07 02:13:01;;;;;;;46.53;32.33;;;;;;;-2.08;100.00;99451.03;2082693;28;20196;-76
2022/03/07 02:14:22;;;;;;;36.78;28.48;;;;;;;-2.03;100.00;99456.44;2083285;28;20173;-76
2022/03/07 02:15:39;;;;;;;39.30;27.98;;;;;;;-2.07;100.00;99467.53;2082307;28;20203;-76
2022/03/07 02:16:52;;;;;;;38.45;28.85;;;;;;;-2.09;100.00;99454.63;2082884;28;20168;-76
2022/03/07 02:17:58;;;;;;;41.95;29.05;;;;;;;-2.13;100.00;99442.19;2082368;28;20249;-75
2022/03/07 02:19:00;;;;;;;34.20;25.70;;;;;;;-2.09;100.00;99446.00;2082743;28;20188;-76
2022/03/07 02:20:11;;;;;;;41.80;29.40;;;;;;;-2.10;100.00;99449.63;2082472;28;20195;-76
2022/03/07 02:21:26;;;;;;;38.05;27.65;;;;;;;-2.11;100.00;99450.63;2082036;28;20223;-76
2022/03/07 02:22:44;;;;;;;45.13;31.58;;;;;;;-2.17;100.00;99444.41;2082403;28;20730;-76
2022/03/07 02:23:56;;;;;;;41.25;28.77;;;;;;;-2.17;100.00;99446.19;2082734;28;20591;-76
2022/03/07 02:25:00;;;;;;;45.85;31.05;;;;;;;-2.17;100.00;99440.97;2076199;28;20192;-76
2022/03/07 02:26:10;;;;;;;45.25;31.17;;;;;;;-2.15;100.00;99441.59;2082634;28;20192;-76
2022/03/07 02:27:19;;;;;;;35.95;26.45;;;;;;;-2.12;100.00;99447.22;2082393;28;20287;-76
2022/03/07 02:28:31;;;;;;;41.58;29.58;;;;;;;-2.13;100.00;99440.38;2075621;28;20238;-76
2022/03/07 02:29:41;;;;;;;46.60;32.78;;;;;;;-2.20;100.00;99439.59;2075143;28;20193;-75
2022/03/07 02:30:52;;;;;;;41.03;30.00;;;;;;;-2.19;100.00;99437.78;2076202;28;20253;-76
2022/03/07 02:32:00;;;;;;;41.80;32.13;;;;;;;-2.29;100.00;99439.00;2082713;28;20662;-76
2022/03/07 02:33:05;;;;;;;43.30;31.50;;;;;;;-2.30;100.00;99432.16;2082238;28;20204;-76
2022/03/07 02:34:14;;;;;;;41.63;31.90;;;;;;;-2.31;100.00;99430.56;2082618;28;20257;-76
2022/03/07 02:35:22;;;;;;;47.30;32.53;;;;;;;-2.34;100.00;99438.00;2083028;28;20414;-76
2022/03/07 02:36:33;;;;;;;44.17;31.98;;;;;;;-2.27;100.00;99423.09;2082591;28;20315;-76
2022/03/07 02:37:52;;;;;;;35.00;26.02;;;;;;;-2.11;100.00;99434.94;2076104;28;20207;-76
2022/03/07 02:39:01;;;;;;;39.08;26.27;;;;;;;-2.05;100.00;99436.75;2076358;28;20254;-76
2022/03/07 02:40:06;;;;;;;42.00;31.38;;;;;;;-2.20;100.00;99428.31;2074795;28;20204;-76
2022/03/07 02:41:15;;;;;;;43.85;31.13;;;;;;;-2.28;100.00;99432.75;2082215;28;20234;-76
2022/03/07 02:42:32;;;;;;;35.78;26.77;;;;;;;-2.13;100.00;99434.34;2075769;28;20299;-76
2022/03/07 02:43:38;;;;;;;45.72;32.15;;;;;;;-2.18;100.00;99434.94;2075427;28;20729;-76
2022/03/07 02:44:51;;;;;;;44.38;31.15;;;;;;;-2.14;100.00;99430.13;2074984;28;20208;-77
2022/03/07 02:46:01;;;;;;;44.65;31.48;;;;;;;-2.17;100.00;99431.34;2075820;28;20200;-76
2022/03/07 02:47:04;;;;;;;43.45;31.30;;;;;;;-2.25;100.00;99433.38;2075483;28;20208;-76
2022/03/07 02:48:07;;;;;;;42.17;30.75;;;;;;;-2.23;100.00;99424.31;2082406;28;20184;-76
2022/03/07 02:49:18;;;;;;;44.85;31.40;;;;;;;-2.14;100.00;99428.31;2090327;28;20195;-76
2022/03/07 02:50:26;;;;;;;41.95;29.65;;;;;;;-2.10;100.00;99424.28;2089481;28;20688;-76
2022/03/07 02:51:39;;;;;;;42.45;30.67;;;;;;;-2.06;100.00;99430.72;2081936;28;20627;-76
2022/03/07 02:52:52;;;;;;;46.90;32.00;;;;;;;-2.06;100.00;99429.91;2076099;28;20200;-76
2022/03/07 02:53:55;;;;;;;42.03;30.98;;;;;;;-2.21;100.00;99424.91;2082133;28;20204;-76
2022/03/07 02:54:57;;;;;;;41.78;30.88;;;;;;;-2.30;100.00;99421.72;2082240;28;20253;-76
2022/03/07 02:56:05;;;;;;;34.03;28.92;;;;;;;-2.29;100.00;99420.69;2074118;28;20204;-76
2022/03/07 02:57:11;;;;;;;45.08;31.50;;;;;;;-2.37;100.00;99420.09;2074809;28;20209;-76
2022/03/07 02:58:19;;;;;;;46.13;31.40;;;;;;;-2.41;100.00;99416.31;2074690;28;20235;-76
2022/03/07 02:59:26;;;;;;;40.83;30.90;;;;;;;-2.44;100.00;99414.88;2082575;28;20184;-76
2022/03/07 03:00:33;;;;;;;43.35;30.70;;;;;;;-2.43;100.00;99411.28;2082783;28;20196;-76
2022/03/07 03:01:36;;;;;;;44.20;31.30;;;;;;;-2.45;100.00;99413.28;2082534;28;20257;-76
2022/03/07 03:02:46;;;;;;;41.25;31.55;;;;;;;-2.36;100.00;99417.28;2074254;28;20283;-76
2022/03/07 03:03:52;;;;;;;41.85;31.27;;;;;;;-2.37;100.00;99410.47;2075411;28;20200;-76
2022/03/07 03:05:01;;;;;;;41.50;30.65;;;;;;;-2.35;100.00;99407.63;2075063;28;20552;-76
2022/03/07 03:06:07;;;;;;;47.30;31.98;;;;;;;-2.37;100.00;99417.50;2081794;28;20187;-76
2022/03/07 03:07:15;;;;;;;45.47;32.53;;;;;;;-2.40;100.00;99410.06;2082740;28;20194;-76
2022/03/07 03:08:18;;;;;;;44.40;30.98;;;;;;;-2.44;100.00;99407.03;2082112;28;20215;-77
2022/03/07 03:09:22;;;;;;;42.83;32.35;;;;;;;-2.44;100.00;99406.25;2081981;28;20196;-76
2022/03/07 03:10:28;;;;;;;47.25;32.80;;;;;;;-2.43;100.00;99407.84;2074867;28;20204;-77
2022/03/07 03:11:39;;;;;;;44.10;31.65;;;;;;;-2.37;100.00;99415.69;2075245;28;20211;-76
2022/03/07 03:12:52;;;;;;;42.25;31.40;;;;;;;-2.23;100.00;99405.22;2075326;28;20210;-76
2022/03/07 03:13:59;;;;;;;39.67;30.98;;;;;;;-2.00;100.00;99427.28;2082228;28;20650;-76
2022/03/07 03:15:04;;;;;;;43.30;31.67;;;;;;;-1.96;100.00;99425.06;2083003;28;20262;-76
2022/03/07 03:16:06;;;;;;;42.63;30.90;;;;;;;-2.08;100.00;99427.50;2082958;28;20199;-76
2022/03/07 03:17:09;;;;;;;40.55;30.02;;;;;;;-2.14;100.00;99422.28;2082673;28;20214;-76
2022/03/07 03:18:16;;;;;;;43.38;30.73;;;;;;;-2.25;100.00;99422.94;2082784;28;20215;-76
2022/03/07 03:19:22;;;;;;;40.08;30.02;;;;;;;-2.08;100.00;99419.66;2082615;28;20198;-76
2022/03/07 03:20:32;;;;;;;41.28;31.10;;;;;;;-2.16;100.00;99426.94;2081939;28;20206;-76
2022/03/07 03:21:38;;;;;;;42.80;31.98;;;;;;;-2.24;100.00;99421.91;2075550;28;20254;-77
2022/03/07 03:22:44;;;;;;;41.15;31.27;;;;;;;-2.34;100.00;99417.91;2082094;28;20757;-76
2022/03/07 03:23:49;;;;;;;43.97;32.42;;;;;;;-2.34;100.00;99412.69;2082315;28;20222;-77
2022/03/07 03:24:59;;;;;;;42.10;30.85;;;;;;;-2.30;100.00;99411.25;2082738;28;20622;-77
2022/03/07 03:26:05;;;;;;;46.42;31.13;;;;;;;-2.25;100.00;99425.53;2082871;28;20262;-77
2022/03/07 03:27:12;;;;;;;40.63;30.58;;;;;;;-2.32;100.00;99417.69;2081831;28;20207;-76
2022/03/07 03:28:25;;;;;;;43.53;30.77;;;;;;;-2.34;100.00;99417.91;2082211;28;20194;-77
2022/03/07 03:29:29;;;;;;;40.42;30.77;;;;;;;-2.32;100.00;99418.50;2082576;28;20176;-77
2022/03/07 03:30:33;;;;;;;42.47;31.00;;;;;;;-2.27;100.00;99426.53;2082652;28;20713;-77
2022/03/07 03:31:36;;;;;;;45.90;31.58;;;;;;;-2.30;100.00;99421.72;2082799;28;20554;-77
2022/03/07 03:32:46;;;;;;;40.80;30.17;;;;;;;-2.35;100.00;99421.50;2082768;28;20187;-77
2022/03/07 03:33:56;;;;;;;38.33;30.25;;;;;;;-2.34;100.00;99420.53;2081918;28;20277;-77
2022/03/07 03:35:04;;;;;;;39.78;31.48;;;;;;;-2.31;100.00;99427.16;2081994;28;20199;-77
2022/03/07 03:36:14;;;;;;;40.58;29.85;;;;;;;-2.33;100.00;99424.75;2082474;28;20172;-76
2022/03/07 03:37:16;;;;;;;42.78;30.65;;;;;;;-2.33;100.00;99421.31;2082089;28;20257;-77
2022/03/07 03:38:22;;;;;;;42.22;31.10;;;;;;;-2.33;100.00;99422.13;2081861;28;20574;-77
2022/03/07 03:39:31;;;;;;;39.72;30.58;;;;;;;-2.39;100.00;99417.69;2083016;28;20179;-77
2022/03/07 03:40:46;;;;;;;40.85;31.17;;;;;;;-2.38;100.00;99418.50;2082071;28;20742;-77
2022/03/07 03:41:49;;;;;;;41.58;31.02;;;;;;;-2.44;100.00;99409.66;2075964;28;20207;-77
2022/03/07 03:43:00;;;;;;;41.22;30.90;;;;;;;-2.38;100.00;99416.69;2081442;28;20196;-77
2022/03/07 03:44:02;;;;;;;38.90;30.75;;;;;;;-2.40;100.00;99413.50;2081865;28;20231;-77
2022/03/07 03:45:08;;;;;;;42.35;30.48;;;;;;;-2.35;100.00;99418.09;2082021;28;20216;-77
2022/03/07 03:46:10;;;;;;;40.53;30.02;;;;;;;-2.35;100.00;99420.69;2081658;28;20678;-77
2022/03/07 03:47:16;;;;;;;40.30;30.80;;;;;;;-2.30;100.00;99420.91;2082530;28;20655;-77
2022/03/07 03:48:25;;;;;;;39.42;31.40;;;;;;;-2.26;100.00;99416.88;2074254;28;20811;-77
2022/03/07 03:49:35;;;;;;;38.83;29.75;;;;;;;-2.29;100.00;99417.28;2074745;28;20200;-77
2022/03/07 03:50:45;;;;;;;37.47;29.02;;;;;;;-2.23;100.00;99418.28;2082196;28;20179;-77
2022/03/07 03:51:48;;;;;;;41.78;29.45;;;;;;;-2.27;100.00;99413.44;2081892;28;20250;-77
2022/03/07 03:52:49;;;;;;;36.70;28.92;;;;;;;-2.31;100.00;99416.69;2081947;28;20797;-77
2022/03/07 03:54:00;;;;;;;37.83;29.33;;;;;;;-2.38;100.00;99424.53;2082729;28;20191;-77
2022/03/07 03:55:10;;;;;;;35.65;29.15;;;;;;;-2.32;100.00;99418.50;2082864;28;20198;-77
2022/03/07 03:56:20;;;;;;;38.78;29.15;;;;;;;-2.27;100.00;99421.28;2082338;28;20191;-76
2022/03/07 03:57:28;;;;;;;37.80;28.05;;;;;;;-2.27;100.00;99428.31;2082666;28;20247;-77
2022/03/07 03:58:33;;;;;;;36.83;28.35;;;;;;;-2.30;100.00;99426.94;2081579;28;20242;-77
2022/03/07 03:59:34;;;;;;;38.80;27.65;;;;;;;-2.30;100.00;99426.94;2081765;28;20777;-77
2022/03/07 04:00:44;;;;;;;36.50;27.83;;;;;;;-2.27;100.00;99436.16;2081904;28;20257;-77
2022/03/07 04:01:52;;;;;;;35.70;27.52;;;;;;;-2.19;98.06;99427.31;2081886;28;20211;-77
2022/03/07 04:03:03;;;;;;;35.60;27.88;;;;;;;-2.27;96.62;99430.94;2081932;28;20258;-77
2022/03/07 04:04:07;;;;;;;36.70;28.30;;;;;;;-2.30;97.94;99426.94;2081802;28;20261;-77
2022/03/07 04:05:15;;;;;;;35.58;26.58;;;;;;;-2.30;98.07;99423.53;2073900;28;20211;-77
2022/03/07 04:06:16;;;;;;;35.83;27.00;;;;;;;-2.35;96.18;99426.72;2073572;28;20777;-77
2022/03/07 04:07:19;;;;;;;36.17;28.65;;;;;;;-2.32;96.41;99423.72;2081695;28;20187;-77
2022/03/07 04:08:37;;;;;;;34.67;27.05;;;;;;;-2.38;96.41;99419.31;2082557;28;20219;-77
2022/03/07 04:09:46;;;;;;;35.38;28.13;;;;;;;-2.35;95.00;99418.09;2082139;28;20607;-77
2022/03/07 04:11:01;;;;;;;37.22;27.23;;;;;;;-2.37;94.09;99427.94;2081799;28;20668;-77
2022/03/07 04:12:11;;;;;;;34.28;26.63;;;;;;;-2.30;92.65;99421.72;2081871;28;20182;-77
2022/03/07 04:13:13;;;;;;;32.30;26.27;;;;;;;-2.36;92.67;99417.28;2081903;28;20620;-77
2022/03/07 04:14:18;;;;;;;35.47;26.98;;;;;;;-2.25;91.69;99421.13;2081706;28;20195;-77
2022/03/07 04:15:26;;;;;;;32.85;26.55;;;;;;;-2.31;91.19;99414.88;2082589;28;20172;-77
2022/03/07 04:16:38;;;;;;;34.58;27.63;;;;;;;-2.29;89.90;99412.84;2082520;28;20184;-77
2022/03/07 04:17:46;;;;;;;35.03;27.88;;;;;;;-2.30;89.24;99413.06;2081770;28;20205;-77
2022/03/07 04:18:57;;;;;;;36.83;27.50;;;;;;;-2.30;89.26;99411.25;2081627;28;20208;-77
2022/03/07 04:20:00;;;;;;;35.13;27.52;;;;;;;-2.34;88.82;99412.69;2082255;28;20215;-77
2022/03/07 04:21:02;;;;;;;31.25;25.98;;;;;;;-2.37;89.06;99410.47;2081830;28;20222;-76
2022/03/07 04:22:20;;;;;;;;;;;;;;;;;;;;;
2022/03/07 04:23:33;;;;;;;34.42;26.95;;;;;;;-2.41;88.44;99414.50;2082557;28;20179;-77
2022/03/07 04:24:39;;;;;;;32.83;26.02;;;;;;;-2.37;88.02;99415.69;2081415;28;20207;-77
2022/03/07 04:25:50;;;;;;;36.60;27.27;;;;;;;-2.38;88.69;99416.69;2074327;28;20196;-77
2022/03/07 04:26:57;;;;;;;31.90;26.02;;;;;;;-2.41;88.53;99413.69;2081841;28;20234;-77
2022/03/07 04:28:01;;;;;;;31.30;26.38;;;;;;;-2.45;88.08;99415.09;2081946;28;20674;-77
2022/03/07 04:29:08;;;;;;;30.40;25.55;;;;;;;-2.35;86.00;99411.06;2074051;28;20290;-77
2022/03/07 04:30:18;;;;;;;31.95;26.65;;;;;;;-2.30;83.33;99416.47;2081669;28;20211;-77
2022/03/07 04:31:24;;;;;;;36.25;26.42;;;;;;;-2.37;83.29;99405.22;2081862;28;20204;-77
2022/03/07 04:32:36;;;;;;;33.47;26.10;;;;;;;-2.40;83.53;99404.84;2074095;28;20260;-77
2022/03/07 04:33:45;;;;;;;31.92;27.02;;;;;;;-2.46;84.40;99401.22;2081766;28;20698;-77
2022/03/07 04:34:47;;;;;;;30.77;25.98;;;;;;;-2.50;85.05;99405.25;2081746;28;20203;-77
2022/03/07 04:35:50;;;;;;;31.90;26.40;;;;;;;-2.52;84.92;99404.63;2081554;28;20249;-77
2022/03/07 04:37:01;;;;;;;33.80;28.10;;;;;;;-2.55;84.75;99399.84;2081114;28;20227;-77
2022/03/07 04:38:10;;;;;;;35.13;28.77;;;;;;;-2.55;83.84;99402.44;2074536;28;20258;-77
2022/03/07 04:39:21;;;;;;;36.08;28.30;;;;;;;-2.55;85.12;99405.06;2081599;28;20269;-77
2022/03/07 04:40:26;;;;;;;35.10;29.65;;;;;;;-2.58;85.70;99411.50;2082058;28;20674;-77
2022/03/07 04:41:29;;;;;;;32.95;27.67;;;;;;;-2.61;85.65;99401.47;2082351;28;20263;-77
2022/03/07 04:42:37;;;;;;;35.38;27.98;;;;;;;-2.61;86.82;99406.69;2082322;28;20219;-77
2022/03/07 04:43:39;;;;;;;34.50;28.60;;;;;;;-2.63;87.52;99400.03;2082157;28;20247;-77
2022/03/07 04:44:50;;;;;;;37.95;28.90;;;;;;;-2.67;87.67;99404.06;2082089;28;20553;-77
2022/03/07 04:46:08;;;;;;;;;;;;;;;;;;;;;
2022/03/07 04:47:23;;;;;;;35.83;26.05;;;;;;;-2.65;86.36;99402.06;2076397;28;20211;-77
2022/03/07 04:48:30;;;;;;;35.60;27.30;;;;;;;-2.63;85.32;99410.47;2074048;28;20204;-77
2022/03/07 04:49:34;;;;;;;36.42;27.48;;;;;;;-2.64;85.63;99403.66;2082001;28;20202;-77
2022/03/07 04:50:36;;;;;;;36.40;26.88;;;;;;;-2.66;84.97;99400.44;2081780;28;20223;-77
2022/03/07 04:51:46;;;;;;;34.20;27.42;;;;;;;-2.63;85.71;99405.25;2073501;28;20693;-77
2022/03/07 04:52:54;;;;;;;33.40;27.23;;;;;;;-2.59;84.92;99409.09;2081696;28;20677;-77
2022/03/07 04:54:04;;;;;;;29.65;26.23;;;;;;;-2.52;83.25;99412.47;2081484;28;20636;-78
2022/03/07 04:55:11;;;;;;;30.10;26.17;;;;;;;-2.51;81.31;99408.88;2074402;28;20242;-77
2022/03/07 04:56:18;;;;;;;31.10;26.30;;;;;;;-2.49;81.08;99406.06;2081885;28;20164;-77
2022/03/07 04:57:19;;;;;;;38.45;27.25;;;;;;;-2.40;81.16;99415.28;2081891;28;20196;-77
2022/03/07 04:58:23;;;;;;;29.73;26.57;;;;;;;-2.33;81.69;99418.72;2073678;28;20204;-77
2022/03/07 04:59:31;;;;;;;30.45;26.23;;;;;;;-2.37;81.49;99413.06;2081613;28;20470;-77
2022/03/07 05:00:41;;;;;;;34.58;27.48;;;;;;;-2.33;81.76;99424.75;2081940;28;20210;-77
2022/03/07 05:01:52;;;;;;;34.63;26.45;;;;;;;-2.31;82.87;99416.69;2082037;28;20199;-77
2022/03/07 05:02:59;;;;;;;34.20;27.45;;;;;;;-2.30;83.26;99418.28;2082209;28;20184;-77
2022/03/07 05:04:02;;;;;;;34.83;28.17;;;;;;;-2.32;83.61;99420.31;2081848;28;20635;-78
2022/03/07 05:05:06;;;;;;;36.90;28.55;;;;;;;-2.28;84.75;99422.31;2081877;28;20176;-78
2022/03/07 05:06:13;;;;;;;34.28;28.52;;;;;;;-2.29;84.56;99412.84;2080917;28;20199;-77
2022/03/07 05:07:19;;;;;;;35.08;28.42;;;;;;;-2.36;85.47;99422.50;2074831;28;20582;-77